createdAt,value
2023-01-11T00:02:05.097Z,11.76
2023-01-11T00:04:31.976Z,11.80
2023-01-11T00:06:58.918Z,11.68
2023-01-11T00:09:25.804Z,11.63
2023-01-11T00:11:52.769Z,11.62
2023-01-11T00:14:21.586Z,11.64
2023-01-11T00:16:48.447Z,11.59
2023-01-11T00:19:15.271Z,11.60
2023-01-11T00:21:42.172Z,11.52
2023-01-11T00:24:09.127Z,11.57
2023-01-11T00:26:35.991Z,11.56
2023-01-11T00:29:02.859Z,11.56
2023-01-11T00:31:31.165Z,11.56
2023-01-11T00:33:58.149Z,11.50
2023-01-11T00:36:25.068Z,11.49
2023-01-11T00:38:53.817Z,11.45
2023-01-11T00:41:40.671Z,11.41
2023-01-11T00:44:28.814Z,11.52
2023-01-11T00:47:15.903Z,11.40
2023-01-11T00:49:43.302Z,11.33
2023-01-11T00:52:10.525Z,11.32
2023-01-11T00:54:37.839Z,11.33
2023-01-11T00:57:07.396Z,11.29
2023-01-11T00:59:34.279Z,11.36
2023-01-11T01:02:03.114Z,11.36
2023-01-11T01:04:29.962Z,11.41
2023-01-11T01:06:57.036Z,11.37
2023-01-11T01:09:23.950Z,11.31
2023-01-11T01:11:50.870Z,11.38
2023-01-11T01:14:26.594Z,11.43
2023-01-11T01:16:53.932Z,11.37
2023-01-11T01:19:22.779Z,11.42
2023-01-11T01:21:50.097Z,11.40
2023-01-11T01:24:17.533Z,11.37
2023-01-11T01:26:44.456Z,11.29
2023-01-11T01:29:11.902Z,11.36
2023-01-11T01:31:38.829Z,11.34
2023-01-11T01:34:06.663Z,11.34
2023-01-11T01:36:35.624Z,11.27
2023-01-11T01:39:04.370Z,11.34
2023-01-11T01:41:31.605Z,11.36
2023-01-11T01:44:00.542Z,11.40
2023-01-11T01:46:29.534Z,11.33
2023-01-11T01:49:00.969Z,11.25
2023-01-11T01:51:32.476Z,11.43
2023-01-11T01:54:06.083Z,11.31
2023-01-11T01:56:38.121Z,11.39
2023-01-11T01:59:12.807Z,11.36
2023-01-11T02:01:49.105Z,11.37
2023-01-11T02:04:22.281Z,11.40
2023-01-11T02:06:50.531Z,11.36
2023-01-11T02:09:27.314Z,11.44
2023-01-11T02:11:56.397Z,11.47
2023-01-11T02:14:24.312Z,11.40
2023-01-11T02:16:51.196Z,11.43
2023-01-11T02:19:34.145Z,11.50
2023-01-11T02:22:17.118Z,11.45
2023-01-11T02:25:16.683Z,11.43
2023-01-11T02:28:08.722Z,11.47
2023-01-11T02:30:45.122Z,11.45
2023-01-11T02:33:23.919Z,11.43
2023-01-11T02:35:59.406Z,11.34
2023-01-11T02:38:33.426Z,11.36
2023-01-11T02:41:07.674Z,11.39
2023-01-11T02:44:02.807Z,11.39
2023-01-11T02:46:35.522Z,11.42
2023-01-11T02:49:10.994Z,11.42
2023-01-11T02:51:42.860Z,11.45
2023-01-11T02:54:12.549Z,11.40
2023-01-11T02:56:42.356Z,11.48
2023-01-11T02:59:13.648Z,11.45
2023-01-11T03:01:47.125Z,11.48
2023-01-11T03:04:29.805Z,11.44
2023-01-11T03:07:10.352Z,11.46
2023-01-11T03:09:51.127Z,11.47
2023-01-11T03:13:05.086Z,11.48
2023-01-11T03:15:55.755Z,11.48
2023-01-11T03:18:40.493Z,11.49
2023-01-11T03:21:21.637Z,11.48
2023-01-11T03:23:58.409Z,11.54
2023-01-11T03:26:34.169Z,11.55
2023-01-11T03:29:10.873Z,11.53
2023-01-11T03:31:46.579Z,11.51
2023-01-11T03:34:18.977Z,11.48
2023-01-11T03:36:52.381Z,11.50
2023-01-11T03:39:26.647Z,11.54
2023-01-11T03:41:57.367Z,11.49
2023-01-11T03:44:26.986Z,11.47
2023-01-11T03:47:01.195Z,11.42
2023-01-11T03:49:31.784Z,11.40
2023-01-11T03:52:00.738Z,11.39
2023-01-11T03:54:30.255Z,11.32
2023-01-11T03:57:04.071Z,11.31
2023-01-11T03:59:30.853Z,11.32
2023-01-11T04:02:00.019Z,11.17
2023-01-11T04:04:27.622Z,11.14
2023-01-11T04:06:54.668Z,11.20
2023-01-11T04:09:21.606Z,11.21
2023-01-11T04:11:48.631Z,11.16
2023-01-11T04:14:15.599Z,11.21
2023-01-11T04:16:42.558Z,11.16
2023-01-11T04:19:10.860Z,11.07
2023-01-11T04:21:37.648Z,11.09
2023-01-11T04:24:04.768Z,11.07
2023-01-11T04:26:31.712Z,11.00
2023-01-11T04:28:58.608Z,11.01
2023-01-11T04:31:25.672Z,10.98
2023-01-11T04:33:52.621Z,10.87
2023-01-11T04:36:20.812Z,10.81
2023-01-11T04:38:47.720Z,10.82
2023-01-11T04:41:33.108Z,10.87
2023-01-11T04:43:59.966Z,10.73
2023-01-11T04:46:26.851Z,10.79
2023-01-11T04:48:53.805Z,10.77
2023-01-11T04:51:22.405Z,10.73
2023-01-11T04:53:49.367Z,10.67
2023-01-11T04:56:17.084Z,10.69
2023-01-11T04:58:44.557Z,10.68
2023-01-11T05:01:12.937Z,10.57
2023-01-11T05:03:39.823Z,10.56
2023-01-11T05:06:07.976Z,10.51
2023-01-11T05:08:36.241Z,10.48
2023-01-11T05:11:05.534Z,10.43
2023-01-11T05:13:41.714Z,10.37
2023-01-11T05:16:10.057Z,10.34
2023-01-11T05:18:38.777Z,10.26
2023-01-11T05:21:06.543Z,10.32
2023-01-11T05:23:33.946Z,10.27
2023-01-11T05:26:02.829Z,10.22
2023-01-11T05:28:29.701Z,10.14
2023-01-11T05:30:56.624Z,10.05
2023-01-11T05:33:23.484Z,10.06
2023-01-11T05:35:50.358Z,10.08
2023-01-11T05:38:17.493Z,9.99
2023-01-11T05:40:44.398Z,9.90
2023-01-11T05:43:12.619Z,9.82
2023-01-11T05:45:39.507Z,9.78
2023-01-11T05:48:06.325Z,9.76
2023-01-11T05:50:33.205Z,9.63
2023-01-11T05:53:00.160Z,9.64
2023-01-11T05:55:26.970Z,9.59
2023-01-11T05:57:54.078Z,9.58
2023-01-11T06:00:23.379Z,9.51
2023-01-11T06:02:50.384Z,9.46
2023-01-11T06:05:17.384Z,9.43
2023-01-11T06:07:44.211Z,9.31
2023-01-11T06:10:11.589Z,9.24
2023-01-11T06:12:38.465Z,9.23
2023-01-11T06:15:06.324Z,9.11
2023-01-11T06:17:34.575Z,9.07
2023-01-11T06:20:01.477Z,8.98
2023-01-11T06:22:28.427Z,8.97
2023-01-11T06:24:55.306Z,8.94
2023-01-11T06:27:22.114Z,8.92
2023-01-11T06:29:49.110Z,8.83
2023-01-11T06:32:15.926Z,8.77
2023-01-11T06:34:44.608Z,8.71
2023-01-11T06:37:11.574Z,8.60
2023-01-11T06:39:38.474Z,8.59
2023-01-11T06:42:05.317Z,8.60
2023-01-11T06:44:32.237Z,8.59
2023-01-11T06:46:59.117Z,8.57
2023-01-11T06:49:25.977Z,8.52
2023-01-11T06:51:54.154Z,8.50
2023-01-11T06:54:23.107Z,8.59
2023-01-11T06:56:50.231Z,8.61
2023-01-11T06:59:17.102Z,8.47
2023-01-11T07:01:44.113Z,8.44
2023-01-11T07:04:11.146Z,8.40
2023-01-11T07:06:38.052Z,8.35
2023-01-11T07:09:06.476Z,8.41
2023-01-11T07:11:34.911Z,8.30
2023-01-11T07:14:01.882Z,8.29
2023-01-11T07:16:28.744Z,8.25
2023-01-11T07:18:55.671Z,8.22
2023-01-11T07:21:22.743Z,8.17
2023-01-11T07:23:49.609Z,8.13
2023-01-11T07:26:18.301Z,8.12
2023-01-11T07:28:45.171Z,8.06
2023-01-11T07:31:12.083Z,8.06
2023-01-11T07:33:39.070Z,8.06
2023-01-11T07:36:06.442Z,7.99
2023-01-11T07:38:33.400Z,7.98
2023-01-11T07:41:00.279Z,7.93
2023-01-11T07:43:28.506Z,7.91
2023-01-11T07:45:57.875Z,7.90
2023-01-11T07:48:26.616Z,7.83
2023-01-11T07:50:54.375Z,7.77
2023-01-11T07:53:21.629Z,7.72
2023-01-11T07:55:48.435Z,7.73
2023-01-11T07:58:16.200Z,7.74
2023-01-11T08:00:46.124Z,7.66
2023-01-11T08:03:13.225Z,7.60
2023-01-11T08:05:40.692Z,7.61
2023-01-11T08:08:07.963Z,7.63
2023-01-11T08:10:34.864Z,7.62
2023-01-11T08:13:20.440Z,7.61
2023-01-11T08:15:48.864Z,7.64
2023-01-11T08:18:17.293Z,7.61
2023-01-11T08:20:45.655Z,7.68
2023-01-11T08:23:12.685Z,7.68
2023-01-11T08:25:39.694Z,7.70
2023-01-11T08:28:07.638Z,7.75
2023-01-11T08:30:35.071Z,7.75
2023-01-11T08:33:04.031Z,7.79
2023-01-11T08:35:31.675Z,7.79
2023-01-11T08:37:58.648Z,7.80
2023-01-11T08:40:25.722Z,7.82
2023-01-11T08:42:55.108Z,7.84
2023-01-11T08:45:22.260Z,7.94
2023-01-11T08:47:50.847Z,7.94
2023-01-11T08:50:20.382Z,8.00
2023-01-11T08:52:49.826Z,8.04
2023-01-11T08:55:16.851Z,8.07
2023-01-11T08:57:43.671Z,8.03
2023-01-11T09:00:11.792Z,8.05
2023-01-11T09:02:38.658Z,8.10
2023-01-11T09:05:06.422Z,8.08
2023-01-11T09:07:34.691Z,8.11
2023-01-11T09:10:01.608Z,8.15
2023-01-11T09:12:28.571Z,8.14
2023-01-11T09:14:55.816Z,8.21
2023-01-11T09:17:22.634Z,8.26
2023-01-11T09:19:49.586Z,8.33
2023-01-11T09:22:16.536Z,8.41
2023-01-11T09:24:44.790Z,8.49
2023-01-11T09:27:11.937Z,8.57
2023-01-11T09:29:39.037Z,8.64
2023-01-11T09:32:06.168Z,8.58
2023-01-11T09:34:33.402Z,8.71
2023-01-11T09:37:02.766Z,8.74
2023-01-11T09:39:29.717Z,8.76
2023-01-11T09:42:32.389Z,8.82
2023-01-11T09:45:05.427Z,8.89
2023-01-11T09:47:36.987Z,8.94
2023-01-11T09:50:11.449Z,9.02
2023-01-11T09:52:42.992Z,9.04
2023-01-11T09:55:15.270Z,9.11
2023-01-11T09:57:53.773Z,9.10
2023-01-11T10:00:28.201Z,9.18
2023-01-11T10:03:23.707Z,9.23
2023-01-11T10:06:02.121Z,9.40
2023-01-11T10:18:23.320Z,9.50
2023-01-11T10:18:43.011Z,9.67
2023-01-11T10:20:50.531Z,9.77
2023-01-11T10:23:25.851Z,9.92
2023-01-11T10:25:56.599Z,9.90
2023-01-11T10:28:31.349Z,9.88
2023-01-11T10:31:37.448Z,9.83
2023-01-11T10:34:32.607Z,9.76
2023-01-11T10:37:22.241Z,9.71
2023-01-11T10:40:20.818Z,9.76
2023-01-11T10:42:53.264Z,9.68
2023-01-11T10:45:25.504Z,9.62
2023-01-11T10:48:01.379Z,9.66
2023-01-11T10:50:34.737Z,9.63
2023-01-11T10:53:10.549Z,9.61
2023-01-11T10:55:45.433Z,9.71
2023-01-11T10:58:23.947Z,9.74
2023-01-11T11:00:58.686Z,9.84
2023-01-11T11:03:47.637Z,10.12
2023-01-11T11:06:27.234Z,10.21
2023-01-11T11:09:04.569Z,10.46
2023-01-11T11:11:38.368Z,10.69
2023-01-11T11:14:09.351Z,10.83
2023-01-11T11:16:46.660Z,10.81
2023-01-11T11:19:19.950Z,10.84
2023-01-11T11:21:48.295Z,10.93
2023-01-11T11:24:22.179Z,11.01
2023-01-11T11:26:53.498Z,11.00
2023-01-11T11:29:22.935Z,10.93
2023-01-11T11:31:51.206Z,10.80
2023-01-11T11:34:22.441Z,10.86
2023-01-11T11:36:51.773Z,11.03
2023-01-11T11:39:21.442Z,11.05
2023-01-11T11:41:50.931Z,10.98
2023-01-11T11:44:21.315Z,11.07
2023-01-11T11:46:58.866Z,10.98
2023-01-11T11:49:28.173Z,11.03
2023-01-11T11:51:55.625Z,11.08
2023-01-11T11:54:27.028Z,11.12
2023-01-11T11:56:56.045Z,11.12
2023-01-11T11:59:26.317Z,11.15
2023-01-11T12:02:00.525Z,11.06
2023-01-11T12:04:40.551Z,11.00
2023-01-11T12:07:12.937Z,11.08
2023-01-11T12:09:44.416Z,10.86
2023-01-11T12:12:16.390Z,10.69
2023-01-11T12:14:43.324Z,10.75
2023-01-11T12:17:23.308Z,10.74
2023-01-11T12:19:51.980Z,10.78
2023-01-11T12:22:20.952Z,11.01
2023-01-11T12:24:49.287Z,11.40
2023-01-11T12:27:28.262Z,11.55
2023-01-11T12:30:11.279Z,11.62
2023-01-11T12:32:58.295Z,11.66
2023-01-11T12:35:47.633Z,11.72
2023-01-11T12:38:24.482Z,11.71
2023-01-11T12:41:08.537Z,11.62
2023-01-11T12:43:53.363Z,11.66
2023-01-11T12:46:28.844Z,11.44
2023-01-11T12:49:10.778Z,11.53
2023-01-11T12:51:55.458Z,11.54
2023-01-11T12:54:51.465Z,11.50
2023-01-11T12:57:25.494Z,11.39
2023-01-11T13:00:24.088Z,11.34
2023-01-11T13:03:28.529Z,11.21
2023-01-11T13:06:05.392Z,11.22
2023-01-11T13:08:49.057Z,11.10
2023-01-11T13:11:35.673Z,11.28
2023-01-11T13:14:18.358Z,11.28
2023-01-11T13:16:53.363Z,11.28
2023-01-11T13:19:26.563Z,11.20
2023-01-11T13:21:56.071Z,11.19
2023-01-11T13:24:29.334Z,11.19
2023-01-11T13:27:00.627Z,11.25
2023-01-11T13:29:31.878Z,11.22
2023-01-11T13:32:00.856Z,10.97
2023-01-11T13:34:34.819Z,10.77
2023-01-11T13:37:05.870Z,10.60
2023-01-11T13:39:42.106Z,10.53
2023-01-11T13:42:15.914Z,10.35
2023-01-11T13:44:46.086Z,10.31
2023-01-11T13:47:19.534Z,10.23
2023-01-11T13:49:59.329Z,10.22
2023-01-11T13:52:45.599Z,10.30
2023-01-11T13:55:26.166Z,10.35
2023-01-11T13:57:59.347Z,10.47
2023-01-11T14:00:31.951Z,10.62
2023-01-11T14:03:10.801Z,10.75
2023-01-11T14:05:44.874Z,10.84
2023-01-11T14:08:26.762Z,10.89
2023-01-11T14:11:05.883Z,10.87
2023-01-11T14:14:17.785Z,10.78
2023-01-11T14:17:03.885Z,10.67
2023-01-11T14:19:38.279Z,10.67
2023-01-11T14:22:15.618Z,10.69
2023-01-11T14:24:55.850Z,10.53
2023-01-11T14:27:42.254Z,10.49
2023-01-11T14:30:37.375Z,10.38
2023-01-11T14:33:23.189Z,10.35
2023-01-11T14:36:07.916Z,10.31
2023-01-11T14:39:06.999Z,10.22
2023-01-11T14:41:49.809Z,10.16
2023-01-11T14:44:35.545Z,10.19
2023-01-11T14:47:17.022Z,10.27
2023-01-11T14:50:05.012Z,10.25
2023-01-11T14:52:40.119Z,10.29
2023-01-11T14:55:16.292Z,10.23
2023-01-11T14:57:45.051Z,10.07
2023-01-11T15:01:03.357Z,9.96
2023-01-11T15:03:38.621Z,9.91
2023-01-11T15:06:13.774Z,9.84
2023-01-11T15:08:53.477Z,9.70
2023-01-11T15:11:24.693Z,9.62
2023-01-11T15:13:56.756Z,9.62
2023-01-11T15:16:45.719Z,9.46
2023-01-11T15:19:25.655Z,9.34
2023-01-11T15:21:55.828Z,9.27
2023-01-11T15:24:27.084Z,9.23
2023-01-11T15:26:55.060Z,9.09
2023-01-11T15:29:24.324Z,8.98
2023-01-11T15:32:06.112Z,8.99
2023-01-11T15:34:45.887Z,8.96
2023-01-11T15:37:28.174Z,8.98
2023-01-11T15:39:58.411Z,8.95
2023-01-11T15:43:03.846Z,9.01
2023-01-11T15:46:25.390Z,8.97
2023-01-11T15:49:21.955Z,8.89
2023-01-11T15:52:16.023Z,8.91
2023-01-11T15:55:01.177Z,8.85
2023-01-11T15:58:00.681Z,8.82
2023-01-11T16:00:49.118Z,8.80
2023-01-11T16:06:24.817Z,8.69
2023-01-11T16:09:03.969Z,8.75
2023-01-11T16:11:38.073Z,8.69
2023-01-11T16:14:34.565Z,8.70
2023-01-11T16:17:02.485Z,8.63
2023-01-11T16:19:33.607Z,8.71
2023-01-11T16:22:05.582Z,8.71
2023-01-11T16:24:42.408Z,8.69
2023-01-11T16:27:21.812Z,8.68
2023-01-11T16:29:50.531Z,8.82
2023-01-11T16:32:22.386Z,8.85
2023-01-11T16:34:52.095Z,8.91
2023-01-11T16:37:26.392Z,8.94
2023-01-11T16:40:02.678Z,9.02
2023-01-11T16:42:34.994Z,9.02
2023-01-11T16:45:06.668Z,8.94
2023-01-11T16:47:33.634Z,8.91
2023-01-11T16:50:28.615Z,8.92
2023-01-11T16:52:57.496Z,8.94
2023-01-11T16:55:33.986Z,8.79
2023-01-11T16:58:03.007Z,8.77
2023-01-11T17:00:35.656Z,8.68
2023-01-11T17:03:16.500Z,8.70
2023-01-11T17:05:53.759Z,8.74
2023-01-11T17:08:32.470Z,8.77
2023-01-11T17:11:04.360Z,8.75
2023-01-11T17:14:04.531Z,8.79
2023-01-11T17:16:36.176Z,8.79
2023-01-11T17:19:09.149Z,8.70
2023-01-11T17:21:36.321Z,8.71
2023-01-11T17:24:05.640Z,8.71
2023-01-11T17:26:37.777Z,8.72
2023-01-11T17:29:05.885Z,8.73
2023-01-11T17:31:36.185Z,8.74
2023-01-11T17:34:06.185Z,8.78
2023-01-11T17:36:33.599Z,8.78
2023-01-11T17:39:01.641Z,8.90
2023-01-11T17:41:48.138Z,8.89
2023-01-11T17:44:39.304Z,8.89
2023-01-11T17:47:10.865Z,8.90
2023-01-11T17:49:38.899Z,8.86
2023-01-11T17:52:18.619Z,8.93
2023-01-11T17:54:45.727Z,8.94
2023-01-11T17:57:13.715Z,9.00
2023-01-11T17:59:42.057Z,8.99
2023-01-11T18:02:14.283Z,9.03
2023-01-11T18:04:41.792Z,9.05
2023-01-11T18:07:16.750Z,9.12
2023-01-11T18:09:46.582Z,9.14
2023-01-11T18:12:16.486Z,9.14
2023-01-11T18:14:51.990Z,9.09
2023-01-11T18:17:37.249Z,9.09
2023-01-11T18:20:35.465Z,9.09
2023-01-11T18:23:05.275Z,9.10
2023-01-11T18:25:34.811Z,9.14
2023-01-11T18:28:29.649Z,9.07
2023-01-11T18:31:01.955Z,9.23
2023-01-11T18:33:31.622Z,9.22
2023-01-11T18:36:00.198Z,9.09
2023-01-11T18:38:29.276Z,9.15
2023-01-11T18:40:58.527Z,9.19
2023-01-11T18:43:28.252Z,9.22
2023-01-11T18:45:55.285Z,9.18
2023-01-11T18:48:24.028Z,9.07
2023-01-11T18:50:54.542Z,8.96
2023-01-11T18:53:23.715Z,8.76
2023-01-11T18:55:50.638Z,8.78
2023-01-11T18:58:17.786Z,8.69
2023-01-11T19:00:44.719Z,8.60
2023-01-11T19:03:12.196Z,8.58
2023-01-11T19:05:40.529Z,8.53
2023-01-11T19:08:07.739Z,8.57
2023-01-11T19:10:35.108Z,8.50
2023-01-11T19:13:02.026Z,8.51
2023-01-11T19:15:29.210Z,8.46
2023-01-11T19:17:56.273Z,8.44
2023-01-11T19:20:23.234Z,8.43
2023-01-11T19:22:51.685Z,8.44
2023-01-11T19:25:18.822Z,8.38
2023-01-11T19:27:45.720Z,8.33
2023-01-11T19:30:13.642Z,8.30
2023-01-11T19:32:40.552Z,8.35
2023-01-11T19:35:08.451Z,8.36
2023-01-11T19:37:36.866Z,8.39
2023-01-11T19:40:06.572Z,8.34
2023-01-11T19:42:33.467Z,8.40
2023-01-11T19:45:00.389Z,8.45
2023-01-11T19:47:27.384Z,8.46
2023-01-11T19:49:56.536Z,8.47
2023-01-11T19:52:23.476Z,8.39
2023-01-11T19:54:51.360Z,8.36
2023-01-11T19:57:22.902Z,8.35
2023-01-11T19:59:50.581Z,8.26
2023-01-11T20:02:20.330Z,8.27
2023-01-11T20:04:47.363Z,8.20
2023-01-11T20:07:15.213Z,8.14
2023-01-11T20:09:42.139Z,8.09
2023-01-11T20:12:10.976Z,8.05
2023-01-11T20:14:40.662Z,7.99
2023-01-11T20:17:08.012Z,8.03
2023-01-11T20:19:34.927Z,7.97
2023-01-11T20:22:01.879Z,8.01
2023-01-11T20:24:29.997Z,7.94
2023-01-11T20:26:58.028Z,7.91
2023-01-11T20:29:24.925Z,7.90
2023-01-11T20:31:53.261Z,7.83
2023-01-11T20:45:29.280Z,7.78
2023-01-11T20:47:57.790Z,7.81
2023-01-11T20:50:25.125Z,7.82
2023-01-11T20:52:52.265Z,7.90
2023-01-11T20:55:19.494Z,7.90
2023-01-11T20:57:46.468Z,7.97
2023-01-11T21:00:14.337Z,7.95
2023-01-11T21:02:41.300Z,7.96
2023-01-11T21:05:10.082Z,7.93
2023-01-11T21:07:37.027Z,8.04
2023-01-11T21:10:04.414Z,8.06
2023-01-11T21:12:31.256Z,8.04
2023-01-11T21:14:58.296Z,8.09
2023-01-11T21:17:25.177Z,8.07
2023-01-11T21:19:52.061Z,8.07
2023-01-11T21:22:20.388Z,8.11
2023-01-11T21:24:48.406Z,8.05
2023-01-11T21:27:15.389Z,8.05
2023-01-11T21:29:42.296Z,8.05
2023-01-11T21:32:09.119Z,8.03
2023-01-11T21:34:36.007Z,8.03
2023-01-11T21:37:02.813Z,8.09
2023-01-11T21:39:31.022Z,8.13
2023-01-11T21:42:01.196Z,8.18
2023-01-11T21:44:33.439Z,8.23
2023-01-11T21:47:00.953Z,8.20
2023-01-11T21:49:27.899Z,8.19
2023-01-11T21:51:54.823Z,8.26
2023-01-11T21:54:21.893Z,8.28
2023-01-11T21:56:50.690Z,8.33
2023-01-11T21:59:17.838Z,8.36
2023-01-11T22:01:46.239Z,8.35
2023-01-11T22:04:15.091Z,8.40
2023-01-11T22:06:43.452Z,8.44
2023-01-11T22:09:11.739Z,8.48
2023-01-11T22:11:38.985Z,8.55
2023-01-11T22:14:08.821Z,8.50
2023-01-11T22:16:36.538Z,8.49
2023-01-11T22:19:06.209Z,8.52
2023-01-11T22:21:33.117Z,8.53
2023-01-11T22:24:00.003Z,8.57
2023-01-11T22:26:30.033Z,8.57
2023-01-11T22:29:15.532Z,8.54
2023-01-11T22:31:46.612Z,8.55
2023-01-11T22:34:14.147Z,8.59
2023-01-11T22:36:42.334Z,8.55
2023-01-11T22:39:09.332Z,8.60
2023-01-11T22:41:36.292Z,8.66
2023-01-11T22:44:03.945Z,8.61
2023-01-11T22:46:30.959Z,8.66
2023-01-11T22:48:59.553Z,8.63
2023-01-11T22:51:27.298Z,8.70
2023-01-11T22:53:55.115Z,8.71
2023-01-11T22:56:25.010Z,8.71
2023-01-11T22:58:52.737Z,8.71
2023-01-11T23:01:22.001Z,8.76
2023-01-11T23:03:49.597Z,8.80
2023-01-11T23:06:19.683Z,8.87
2023-01-11T23:08:46.873Z,8.82
2023-01-11T23:11:35.538Z,8.91
2023-01-11T23:14:04.494Z,8.93
2023-01-11T23:16:31.825Z,8.96
2023-01-11T23:18:58.789Z,8.96
2023-01-11T23:21:27.151Z,8.97
2023-01-11T23:23:54.112Z,8.95
2023-01-11T23:26:21.327Z,8.95
2023-01-11T23:28:50.017Z,8.98
2023-01-11T23:31:19.376Z,9.00
2023-01-11T23:33:47.614Z,8.96
2023-01-11T23:36:16.062Z,8.94
2023-01-11T23:38:44.405Z,8.96
2023-01-11T23:41:32.069Z,8.93
2023-01-11T23:43:58.910Z,8.97
2023-01-11T23:46:44.524Z,9.04
2023-01-11T23:49:14.462Z,9.03
2023-01-11T23:51:42.184Z,9.00
2023-01-11T23:54:10.958Z,8.99
2023-01-11T23:56:38.316Z,9.08
2023-01-11T23:59:07.063Z,9.10
